Time;durP1;ratioP1;P1;durP2;ratioP2;P2;SDS_P1;SDS_P2;PMS_P1;PMS_P2;Temp;Humidity;BMP_temperature;BMP_pressure;BME280_temperature;BME280_humidity;BME280_pressure;Samples;Min_cycle;Max_cycle;Signal;HPM_P1;HPM_P2
2024/04/04 00:02:27;;;;;;;3.03;0.65;;;;;;;11.69;78.93;99835.31;10404574;28;20501;-62
2024/04/04 00:07:28;;;;;;;4.22;1.50;;;;;;;11.64;78.60;99837.75;10404311;28;20603;-61
2024/04/04 00:12:28;;;;;;;3.40;0.70;;;;;;;11.57;78.82;99835.00;10398306;28;20563;-61
2024/04/04 00:17:29;;;;;;;3.95;0.95;;;;;;;11.52;78.52;99829.38;10407186;28;20065;-61
2024/04/04 00:22:29;;;;;;;2.78;0.70;;;;;;;11.44;78.61;99834.91;10404841;28;20049;-61
2024/04/04 00:27:30;;;;;;;4.15;1.30;;;;;;;11.35;79.01;99827.97;10403826;28;20059;-61
2024/04/04 00:32:31;;;;;;;3.03;1.17;;;;;;;11.29;79.10;99825.06;10402174;28;20049;-62
2024/04/04 00:37:31;;;;;;;2.70;0.70;;;;;;;11.24;78.70;99818.59;10391732;28;20095;-62
2024/04/04 00:42:32;;;;;;;7.22;0.90;;;;;;;11.18;78.92;99816.66;10409881;28;20491;-61
2024/04/04 00:47:32;;;;;;;2.55;0.70;;;;;;;11.10;79.00;99820.31;10412607;28;20068;-62
2024/04/04 00:52:33;;;;;;;8.70;0.85;;;;;;;11.04;79.00;99826.47;10414775;28;20523;-60
2024/04/04 00:57:37;;;;;;;5.85;1.08;;;;;;;10.99;78.44;99815.44;10412063;28;20055;-60
2024/04/04 01:02:38;;;;;;;5.90;1.05;;;;;;;10.91;79.01;99813.72;10411567;28;20041;-63
2024/04/04 01:07:39;;;;;;;6.68;1.30;;;;;;;10.85;78.54;99815.31;10413172;28;20817;-65
2024/04/04 01:12:40;;;;;;;5.57;1.35;;;;;;;10.78;78.13;99819.81;10412105;28;20045;-63
2024/04/04 01:17:40;;;;;;;6.20;1.10;;;;;;;10.75;78.38;99822.84;10406358;28;20049;-64
2024/04/04 01:22:41;;;;;;;9.05;2.03;;;;;;;10.71;77.96;99825.09;10409609;28;20045;-64
2024/04/04 01:27:41;;;;;;;5.65;1.27;;;;;;;10.70;77.67;99815.38;10411554;28;20048;-65
2024/04/04 01:32:42;;;;;;;3.22;0.98;;;;;;;10.68;78.01;99817.41;10406105;28;20037;-66
2024/04/04 01:37:43;;;;;;;2.65;1.08;;;;;;;10.66;77.93;99799.78;10401016;28;20487;-64
2024/04/04 01:42:43;;;;;;;1.55;0.70;;;;;;;10.71;77.79;99790.13;10408356;28;20052;-64
2024/04/04 01:47:43;;;;;;;6.30;1.02;;;;;;;10.79;78.62;99794.56;10405368;28;20055;-64
2024/04/04 01:52:44;;;;;;;6.13;1.17;;;;;;;10.83;78.37;99793.16;10412729;28;20080;-61
2024/04/04 01:57:44;;;;;;;5.32;1.10;;;;;;;10.89;78.54;99788.88;10407198;28;20041;-62
2024/04/04 02:02:45;;;;;;;4.07;1.05;;;;;;;10.92;78.20;99775.06;10404645;28;20484;-60
2024/04/04 02:07:46;;;;;;;9.23;1.02;;;;;;;10.95;78.84;99771.16;10408845;28;20487;-61
2024/04/04 02:12:47;;;;;;;2.75;1.00;;;;;;;10.96;78.92;99783.53;10405636;28;20045;-61
2024/04/04 02:17:48;;;;;;;3.38;1.20;;;;;;;10.96;79.56;99768.28;10403808;28;20094;-60
2024/04/04 02:22:49;;;;;;;4.90;1.40;;;;;;;10.95;79.07;99776.53;10404598;28;20101;-60
2024/04/04 02:27:49;;;;;;;6.93;1.30;;;;;;;11.01;79.12;99763.13;10404545;28;20480;-61
2024/04/04 02:32:50;;;;;;;4.88;1.10;;;;;;;11.00;79.56;99753.41;10404596;28;20091;-63
2024/04/04 02:37:51;;;;;;;4.47;0.93;;;;;;;11.07;79.35;99756.16;10402479;28;20059;-62
2024/04/04 02:42:52;;;;;;;1.58;0.80;;;;;;;11.16;78.88;99756.81;10409454;28;20041;-66
2024/04/04 02:47:52;;;;;;;1.63;0.60;;;;;;;11.21;79.06;99740.94;10404446;28;20049;-63
2024/04/04 02:52:53;;;;;;;3.88;0.80;;;;;;;11.29;78.47;99744.34;10403785;28;20045;-64
2024/04/04 02:57:54;;;;;;;2.75;1.10;;;;;;;11.32;78.95;99732.34;10408252;28;20037;-64
2024/04/04 03:02:54;;;;;;;4.35;0.60;;;;;;;11.44;78.37;99743.41;10402269;28;20051;-65
2024/04/04 03:07:55;;;;;;;2.80;0.70;;;;;;;11.47;78.58;99738.47;10404971;28;20102;-64
2024/04/04 03:12:55;;;;;;;7.47;0.90;;;;;;;11.51;78.88;99734.34;10394510;28;20056;-65
2024/04/04 03:17:59;;;;;;;5.30;0.85;;;;;;;11.60;78.65;99723.41;10407904;28;20044;-65
2024/04/04 03:23:00;;;;;;;3.35;0.98;;;;;;;11.62;78.41;99732.13;10401411;28;20052;-60
2024/04/04 03:28:00;;;;;;;2.75;0.60;;;;;;;11.74;78.04;99727.00;10401772;28;20487;-60
2024/04/04 03:33:01;;;;;;;2.13;0.63;;;;;;;11.79;78.54;99719.16;10409365;28;20780;-61
2024/04/04 03:38:02;;;;;;;4.25;0.80;;;;;;;11.88;77.70;99712.56;10406575;28;20045;-60
2024/04/04 03:43:03;;;;;;;5.40;0.93;;;;;;;11.89;77.92;99723.19;10405803;28;20048;-60
2024/04/04 03:48:04;;;;;;;3.67;0.95;;;;;;;11.97;77.76;99721.38;10403448;28;20094;-62
2024/04/04 03:53:05;;;;;;;2.38;0.77;;;;;;;12.07;77.27;99705.66;10408477;28;20060;-62
2024/04/04 03:58:05;;;;;;;4.45;0.70;;;;;;;12.21;77.35;99706.53;10409160;28;20037;-61
2024/04/04 04:03:06;;;;;;;6.15;1.35;;;;;;;12.35;77.32;99692.03;10408004;28;20049;-61
2024/04/04 04:08:06;;;;;;;4.10;1.48;;;;;;;12.42;77.10;99692.91;10391757;28;20415;-61
2024/04/04 04:13:08;;;;;;;2.97;1.00;;;;;;;12.55;77.12;99694.78;10405415;28;20497;-61
2024/04/04 04:18:08;;;;;;;1.67;0.82;;;;;;;12.52;77.13;99697.91;10404996;28;20408;-61
2024/04/04 04:23:09;;;;;;;6.90;1.10;;;;;;;12.61;77.23;99691.25;10413330;28;20040;-61
2024/04/04 04:28:09;;;;;;;3.17;1.05;;;;;;;12.59;77.18;99693.31;10410920;28;20052;-61
2024/04/04 04:33:10;;;;;;;3.92;1.73;;;;;;;12.56;77.23;99684.81;10413069;28;20140;-64
2024/04/04 04:38:10;;;;;;;3.13;1.02;;;;;;;12.55;77.09;99675.91;10410636;28;20051;-64
2024/04/04 04:43:11;;;;;;;3.40;1.40;;;;;;;12.72;77.04;99670.09;10411409;28;20115;-64
2024/04/04 04:48:11;;;;;;;7.00;1.30;;;;;;;12.73;76.77;99666.38;10406837;28;20525;-65
2024/04/04 04:53:12;;;;;;;3.50;1.42;;;;;;;12.85;76.70;99664.72;10415890;28;20102;-62
2024/04/04 04:58:12;;;;;;;2.38;1.30;;;;;;;12.83;76.75;99666.78;10442389;28;20507;-63
2024/04/04 05:03:14;;;;;;;7.05;1.63;;;;;;;12.89;76.77;99669.50;10442796;28;20179;-66
2024/04/04 05:08:14;;;;;;;7.85;3.17;;;;;;;13.08;76.21;99672.38;10443673;28;20056;-61
2024/04/04 05:13:15;;;;;;;6.05;2.15;;;;;;;13.17;76.08;99659.50;10457981;28;20049;-63
2024/04/04 05:18:15;;;;;;;5.05;1.52;;;;;;;13.22;76.01;99663.22;10439802;28;20067;-64
2024/04/04 05:23:16;;;;;;;2.58;1.20;;;;;;;13.29;75.85;99664.09;10436714;28;20106;-62
2024/04/04 05:28:16;;;;;;;6.45;1.02;;;;;;;13.39;75.85;99666.34;10424525;28;20045;-61
2024/04/04 05:33:17;;;;;;;4.22;1.40;;;;;;;13.42;75.93;99662.38;10410351;28;20041;-63
2024/04/04 05:38:17;;;;;;;2.00;0.90;;;;;;;13.52;75.70;99659.25;10407710;28;20052;-62
2024/04/04 05:43:18;;;;;;;5.32;1.27;;;;;;;13.65;75.39;99656.50;10409218;28;20473;-61
2024/04/04 05:48:18;;;;;;;2.88;1.50;;;;;;;13.74;75.32;99641.72;10408135;28;20042;-62
2024/04/04 05:53:19;;;;;;;4.65;0.98;;;;;;;13.78;75.31;99642.94;10412272;28;20053;-67
2024/04/04 05:58:20;;;;;;;2.85;1.02;;;;;;;13.87;75.06;99630.03;10424475;28;20049;-66
2024/04/04 06:03:20;;;;;;;2.33;1.05;;;;;;;13.98;74.96;99629.34;10420798;28;20045;-58
2024/04/04 06:08:22;;;;;;;4.00;1.00;;;;;;;14.01;75.74;99626.19;10425167;28;20499;-61
2024/04/04 06:13:22;;;;;;;6.15;1.88;;;;;;;14.10;74.79;99618.69;10409550;28;20456;-63
2024/04/04 06:18:23;;;;;;;4.65;1.58;;;;;;;14.18;74.80;99614.88;10407630;28;20091;-60
2024/04/04 06:23:26;;;;;;;2.53;1.20;;;;;;;14.28;74.79;99612.53;10409077;28;20049;-63
2024/04/04 06:28:27;;;;;;;4.40;0.95;;;;;;;14.29;74.77;99606.06;10414376;28;20060;-63
2024/04/04 06:33:27;;;;;;;9.30;0.68;;;;;;;14.38;74.82;99607.47;10410349;28;20131;-63
2024/04/04 06:38:28;;;;;;;2.00;0.82;;;;;;;14.48;74.98;99596.97;10407679;28;20094;-63
2024/04/04 06:43:28;;;;;;;5.70;0.60;;;;;;;14.50;74.97;99590.53;10410912;28;20152;-63
2024/04/04 06:48:30;;;;;;;4.95;0.57;;;;;;;14.60;74.99;99590.91;10409811;28;20045;-63
2024/04/04 06:53:30;;;;;;;5.70;0.60;;;;;;;14.62;74.85;99592.31;10407445;28;20056;-63
2024/04/04 06:58:31;;;;;;;4.07;0.70;;;;;;;14.68;75.05;99585.22;10411450;28;20043;-62
2024/04/04 07:03:32;;;;;;;6.35;0.80;;;;;;;14.71;74.86;99581.22;10413483;28;20045;-63
2024/04/04 07:08:34;;;;;;;7.32;0.50;;;;;;;14.82;74.70;99578.63;10410389;28;20194;-63
2024/04/04 07:13:39;;;;;;;7.55;0.85;;;;;;;14.84;74.68;99570.28;10409620;28;20052;-64
2024/04/04 07:18:40;;;;;;;8.30;0.93;;;;;;;14.90;74.62;99571.28;10409887;28;20049;-63
2024/04/04 07:23:40;;;;;;;7.35;0.50;;;;;;;14.97;74.28;99570.16;10416371;28;20044;-63
2024/04/04 07:28:42;;;;;;;9.68;0.50;;;;;;;15.10;74.10;99565.66;10414395;28;20052;-66
2024/04/04 07:33:42;;;;;;;6.70;0.50;;;;;;;14.94;74.42;99561.66;10417778;28;20052;-62
2024/04/04 07:38:43;;;;;;;2.03;0.50;;;;;;;14.95;74.47;99557.88;10397265;28;20037;-62
2024/04/04 07:43:45;;;;;;;4.60;0.90;;;;;;;15.10;73.99;99563.75;10413215;28;20063;-59
2024/04/04 07:48:46;;;;;;;7.50;0.70;;;;;;;15.04;74.15;99556.53;10413761;28;20056;-61
2024/04/04 07:53:48;;;;;;;5.95;1.20;;;;;;;14.84;74.47;99557.56;10412337;28;20544;-61
2024/04/04 07:58:49;;;;;;;7.65;1.23;;;;;;;14.68;74.78;99550.84;10422089;28;20041;-61
2024/04/04 08:03:50;;;;;;;6.57;0.88;;;;;;;14.77;74.52;99553.28;10421473;28;20067;-67
2024/04/04 08:08:50;;;;;;;8.35;0.90;;;;;;;14.80;74.47;99552.84;10408032;28;20041;-64
2024/04/04 08:13:51;;;;;;;5.85;0.80;;;;;;;14.98;74.11;99552.84;10420349;28;20045;-63
2024/04/04 08:18:52;;;;;;;5.82;0.40;;;;;;;15.02;73.74;99559.47;10413651;28;20414;-61
2024/04/04 08:23:52;;;;;;;4.38;0.40;;;;;;;14.76;74.56;99555.16;10402494;28;20051;-62
2024/04/04 08:28:53;;;;;;;3.17;0.40;;;;;;;14.52;75.30;99567.63;10410625;28;20548;-66
2024/04/04 08:33:54;;;;;;;7.60;0.47;;;;;;;14.38;75.53;99556.09;10400587;28;20127;-64
2024/04/04 08:38:54;;;;;;;3.88;0.40;;;;;;;14.14;76.15;99557.75;10408057;28;20040;-67
2024/04/04 08:43:56;;;;;;;4.78;1.55;;;;;;;13.86;77.09;99567.06;10409090;28;20124;-64
2024/04/04 08:48:57;;;;;;;2.72;0.45;;;;;;;13.81;77.15;99557.94;10409412;28;20041;-66
2024/04/04 08:53:58;;;;;;;8.13;0.98;;;;;;;13.68;77.57;99562.38;10405175;28;20063;-67
2024/04/04 08:58:58;;;;;;;6.20;1.17;;;;;;;13.65;78.00;99552.00;10409494;28;20128;-67
2024/04/04 09:03:59;;;;;;;6.57;1.05;;;;;;;13.57;78.20;99551.44;10392573;28;20037;-65
2024/04/04 09:09:00;;;;;;;10.45;1.33;;;;;;;13.56;78.36;99547.06;10446282;28;20110;-64
2024/04/04 09:14:05;;;;;;;5.63;0.80;;;;;;;13.46;78.90;99563.72;10442312;28;20120;-64
2024/04/04 09:19:13;;;;;;;11.73;1.45;;;;;;;13.26;79.51;99572.69;10437349;28;20049;-63
2024/04/04 09:24:15;;;;;;;7.15;1.10;;;;;;;13.09;80.26;99583.13;10462074;28;20081;-63
2024/04/04 09:29:16;;;;;;;5.07;1.17;;;;;;;13.11;80.65;99588.31;10451380;28;20057;-62
2024/04/04 09:34:18;;;;;;;0.22;0.15;;;;;;;13.15;81.01;99604.91;10444369;28;20065;-62
2024/04/04 09:39:20;;;;;;;0.00;0.00;;;;;;;13.22;81.00;99603.84;10441439;28;20041;-62
2024/04/04 09:44:21;;;;;;;0.00;0.00;;;;;;;13.23;81.18;99615.47;10426150;28;20164;-60
2024/04/04 09:49:21;;;;;;;0.00;0.00;;;;;;;13.20;81.62;99600.53;10414899;28;20049;-61
2024/04/04 09:54:22;;;;;;;0.10;0.10;;;;;;;13.22;81.75;99616.53;10430004;28;20133;-61
2024/04/04 09:59:32;;;;;;;0.00;0.00;;;;;;;13.28;81.39;99632.69;10439999;28;20049;-60
2024/04/04 10:04:36;;;;;;;0.00;0.00;;;;;;;13.42;81.79;99617.31;10442230;28;20060;-63
2024/04/04 10:09:38;;;;;;;0.30;0.30;;;;;;;13.61;81.73;99609.38;10431400;28;20053;-63
2024/04/04 10:14:49;;;;;;;1.15;0.80;;;;;;;13.68;81.65;99637.16;10437092;28;20068;-61
2024/04/04 10:19:52;;;;;;;0.00;0.00;;;;;;;13.71;81.64;99614.31;10455283;28;20037;-62
2024/04/04 10:25:01;;;;;;;0.00;0.00;;;;;;;13.89;81.47;99604.44;10450083;28;20049;-61
2024/04/04 10:30:03;;;;;;;0.00;0.00;;;;;;;14.17;81.20;99602.41;10431184;28;20096;-57
2024/04/04 10:35:04;;;;;;;0.00;0.00;;;;;;;14.39;80.93;99608.28;10414249;28;20044;-58
2024/04/04 10:40:05;;;;;;;0.00;0.00;;;;;;;14.57;80.76;99610.25;10397679;28;20056;-58
2024/04/04 10:45:05;;;;;;;0.00;0.00;;;;;;;14.83;80.10;99607.34;10415367;28;20088;-58
2024/04/04 10:50:08;;;;;;;0.00;0.00;;;;;;;14.96;79.75;99628.03;10406820;28;20135;-57
2024/04/04 10:55:09;;;;;;;0.00;0.00;;;;;;;15.06;79.91;99612.09;10416953;28;20056;-60
2024/04/04 11:00:13;;;;;;;0.00;0.00;;;;;;;15.24;79.62;99621.28;10414144;28;20419;-59
2024/04/04 11:05:16;;;;;;;0.00;0.00;;;;;;;15.33;79.58;99617.25;10413168;28;20053;-58
2024/04/04 11:10:17;;;;;;;0.00;0.00;;;;;;;15.28;79.68;99625.22;10415984;28;20049;-59
2024/04/04 11:15:19;;;;;;;0.00;0.00;;;;;;;15.12;79.44;99645.56;10412872;28;20059;-58
2024/04/04 11:20:20;;;;;;;0.00;0.00;;;;;;;14.88;79.79;99658.09;10410110;28;20056;-60
2024/04/04 11:25:20;;;;;;;0.00;0.00;;;;;;;14.44;80.67;99665.25;10411983;28;20045;-59
2024/04/04 11:30:21;;;;;;;0.00;0.00;;;;;;;14.15;81.21;99653.97;10413884;28;20045;-57
2024/04/04 11:35:22;;;;;;;0.00;0.00;;;;;;;14.06;81.10;99656.13;10405499;28;20542;-61
2024/04/04 11:40:23;;;;;;;0.00;0.00;;;;;;;14.15;80.80;99655.88;10403317;28;20045;-60
2024/04/04 11:45:24;;;;;;;0.00;0.00;;;;;;;14.25;80.66;99675.13;10403487;28;20095;-60
2024/04/04 11:50:24;;;;;;;0.00;0.00;;;;;;;14.22;80.48;99681.00;10406094;28;20049;-60
2024/04/04 11:55:25;;;;;;;0.00;0.00;;;;;;;13.88;80.81;99670.34;10405571;28;20041;-64
2024/04/04 12:00:26;;;;;;;0.00;0.00;;;;;;;13.59;81.64;99655.50;10402742;28;20057;-64
2024/04/04 12:05:26;;;;;;;0.00;0.00;;;;;;;13.39;81.71;99665.50;10399194;28;20179;-62
2024/04/04 12:10:27;;;;;;;0.00;0.00;;;;;;;13.14;81.95;99671.53;10407659;28;20072;-62
2024/04/04 12:15:29;;;;;;;0.00;0.00;;;;;;;13.01;81.75;99682.34;10388215;28;20049;-61
2024/04/04 12:20:29;;;;;;;0.00;0.00;;;;;;;12.83;82.09;99697.28;10402278;28;20363;-61
2024/04/04 12:25:31;;;;;;;0.00;0.00;;;;;;;12.88;82.15;99708.28;10389768;28;20038;-63
2024/04/04 12:30:32;;;;;;;0.00;0.00;;;;;;;12.89;81.83;99736.09;10402064;28;20049;-61
2024/04/04 12:35:32;;;;;;;0.00;0.00;;;;;;;12.86;82.36;99713.06;10414072;28;20681;-61
2024/04/04 12:40:33;;;;;;;0.00;0.00;;;;;;;13.02;81.99;99714.50;10409739;28;20065;-60
2024/04/04 12:45:33;;;;;;;0.00;0.00;;;;;;;13.13;82.05;99707.69;10418800;28;20052;-67
2024/04/04 12:50:34;;;;;;;0.00;0.00;;;;;;;13.40;81.87;99715.75;10417130;28;20083;-64
2024/04/04 12:55:34;;;;;;;0.00;0.00;;;;;;;13.45;82.16;99676.31;10423923;28;20054;-63
2024/04/04 13:00:35;;;;;;;0.00;0.00;;;;;;;13.44;82.28;99661.13;10420881;28;20059;-68
2024/04/04 13:05:38;;;;;;;0.00;0.00;;;;;;;13.44;82.25;99639.53;10413119;28;20061;-71
2024/04/04 13:10:39;;;;;;;0.00;0.00;;;;;;;13.49;81.99;99655.13;10409017;28;20107;-71
2024/04/04 13:15:40;;;;;;;0.00;0.00;;;;;;;13.42;82.11;99684.00;10410262;28;20095;-69
2024/04/04 13:20:40;;;;;;;0.00;0.00;;;;;;;13.39;82.40;99673.59;10410330;28;20072;-71
2024/04/04 13:25:40;;;;;;;0.00;0.00;;;;;;;13.48;81.94;99669.63;10405052;28;20380;-64
2024/04/04 13:30:41;;;;;;;0.00;0.00;;;;;;;13.53;81.83;99663.63;10408267;28;20389;-69
2024/04/04 13:35:41;;;;;;;0.00;0.00;;;;;;;13.59;81.76;99674.41;10416331;28;20098;-58
2024/04/04 13:40:43;;;;;;;0.00;0.00;;;;;;;13.74;81.34;99668.72;10414074;28;20045;-58
2024/04/04 13:45:44;;;;;;;0.00;0.00;;;;;;;13.85;81.47;99653.72;10407246;28;20056;-58
2024/04/04 13:50:45;;;;;;;0.00;0.00;;;;;;;14.00;81.34;99657.00;10411901;28;20044;-58
2024/04/04 13:55:45;;;;;;;0.00;0.00;;;;;;;14.21;81.11;99646.88;10437628;28;20060;-62
2024/04/04 14:00:45;;;;;;;0.00;0.00;;;;;;;14.51;80.79;99638.16;10459550;28;20029;-61
2024/04/04 14:05:46;;;;;;;0.00;0.00;;;;;;;14.66;80.69;99641.41;10460654;28;20096;-61
2024/04/04 14:10:46;;;;;;;0.00;0.00;;;;;;;14.58;80.73;99637.09;10465155;28;20033;-61
2024/04/04 14:26:49;;;;;;;1.25;0.10;;;;;;;18.96;74.65;99644.84;10745561;23;20037;-86
2024/04/04 14:42:38;;;;;;;1.70;0.30;;;;;;;23.35;66.98;99659.09;12521247;23;20053;-57
2024/04/04 14:47:40;;;;;;;1.35;0.20;;;;;;;23.41;66.07;99678.31;10301971;28;20673;-60
2024/04/04 14:52:40;;;;;;;0.52;0.10;;;;;;;23.80;64.24;99683.97;10310482;28;20088;-59
2024/04/04 14:57:41;;;;;;;1.55;0.15;;;;;;;24.45;61.52;99694.91;10304456;28;20147;-59
2024/04/04 15:02:43;;;;;;;0.10;0.10;;;;;;;24.25;61.03;99686.78;10300608;28;20056;-64
2024/04/04 15:07:44;;;;;;;0.10;0.10;;;;;;;23.99;59.78;99697.06;10327022;28;20537;-67
2024/04/04 15:12:45;;;;;;;0.68;0.10;;;;;;;24.10;58.49;99701.41;10330297;28;20053;-64
2024/04/04 15:17:45;;;;;;;0.32;0.10;;;;;;;22.87;58.18;99699.72;10340881;28;20057;-61
2024/04/04 15:22:46;;;;;;;0.30;0.08;;;;;;;21.94;58.03;99704.13;10324526;28;20508;-65
2024/04/04 15:27:46;;;;;;;1.35;0.20;;;;;;;21.18;57.83;99704.47;10292982;28;20080;-64
2024/04/04 15:32:47;;;;;;;0.47;0.10;;;;;;;20.62;58.16;99707.53;10297839;28;20050;-64
2024/04/04 15:37:47;;;;;;;1.38;0.15;;;;;;;20.19;58.17;99720.97;10290115;28;20133;-65
2024/04/04 15:42:48;;;;;;;0.98;0.15;;;;;;;19.98;57.79;99714.47;10295603;28;20042;-65
2024/04/04 15:47:48;;;;;;;0.85;0.10;;;;;;;20.14;57.19;99726.38;10311548;28;20090;-64
2024/04/04 15:52:49;;;;;;;1.83;0.10;;;;;;;21.32;55.58;99715.75;10282931;28;20045;-65
2024/04/04 15:57:49;;;;;;;1.25;0.10;;;;;;;21.33;55.15;99709.22;10295397;28;20115;-64
2024/04/04 16:02:52;;;;;;;2.38;0.20;;;;;;;21.55;52.60;99726.34;10292375;28;20053;-64
2024/04/04 16:07:52;;;;;;;1.73;0.10;;;;;;;21.45;52.06;99728.19;10302950;28;20051;-64
2024/04/04 16:12:53;;;;;;;1.60;0.13;;;;;;;21.95;51.25;99724.91;10300084;28;20494;-65
2024/04/04 16:17:53;;;;;;;2.25;0.28;;;;;;;21.75;49.83;99730.28;10297959;28;20378;-64
2024/04/04 16:22:53;;;;;;;2.75;0.40;;;;;;;21.33;50.87;99726.44;10300356;28;20048;-64
2024/04/04 16:27:55;;;;;;;2.08;0.30;;;;;;;20.95;51.54;99733.81;10293024;28;20145;-64
2024/04/04 16:32:55;;;;;;;2.67;0.50;;;;;;;20.52;51.81;99734.72;10302083;28;20310;-65
2024/04/04 16:37:56;;;;;;;1.02;0.40;;;;;;;20.02;52.64;99744.75;10299389;28;20102;-64
2024/04/04 16:42:56;;;;;;;5.88;0.30;;;;;;;19.59;53.60;99758.06;10300076;28;20551;-64
2024/04/04 16:47:57;;;;;;;0.90;0.20;;;;;;;19.14;54.27;99769.91;10304720;28;21012;-65
2024/04/04 16:53:01;;;;;;;4.68;1.10;;;;;;;18.72;54.80;99772.94;10300231;28;20347;-63
2024/04/04 16:58:01;;;;;;;3.42;0.30;;;;;;;18.50;55.56;99782.84;10302629;28;20038;-63
2024/04/04 17:03:02;;;;;;;3.17;0.30;;;;;;;18.13;56.63;99791.38;10297646;28;20633;-62
2024/04/04 17:08:04;;;;;;;1.52;0.10;;;;;;;17.93;57.49;99792.59;10298982;28;20405;-63
2024/04/04 17:13:04;;;;;;;3.15;0.30;;;;;;;17.68;58.05;99806.38;10298734;28;20058;-61
2024/04/04 17:18:05;;;;;;;1.38;0.20;;;;;;;17.45;59.00;99809.91;10296309;28;20038;-62
2024/04/04 17:23:05;;;;;;;2.60;0.30;;;;;;;17.23;59.57;99825.94;10305393;28;20073;-64
2024/04/04 17:28:06;;;;;;;3.00;0.20;;;;;;;17.11;60.29;99825.91;10314534;28;20070;-65
2024/04/04 17:33:06;;;;;;;2.47;0.20;;;;;;;16.97;60.90;99827.16;10295687;28;20110;-64
2024/04/04 17:38:07;;;;;;;3.10;0.30;;;;;;;16.68;61.70;99824.19;10310968;28;20064;-65
2024/04/04 17:43:08;;;;;;;2.13;0.20;;;;;;;16.42;62.03;99819.94;10306706;28;20331;-63
2024/04/04 17:48:08;;;;;;;2.33;0.70;;;;;;;16.22;62.38;99831.00;10308455;28;20049;-63
2024/04/04 17:53:09;;;;;;;2.72;0.30;;;;;;;16.12;62.84;99836.97;10292780;28;20069;-64
2024/04/04 17:58:09;;;;;;;1.73;0.32;;;;;;;15.95;63.61;99863.00;10302821;28;20038;-66
2024/04/04 18:03:10;;;;;;;2.50;1.38;;;;;;;15.86;63.66;99865.16;10303899;28;20085;-67
2024/04/04 18:08:10;;;;;;;1.45;0.15;;;;;;;15.78;64.22;99868.16;10307931;28;20094;-65
2024/04/04 18:13:11;;;;;;;2.13;0.28;;;;;;;15.77;64.18;99880.88;10306122;28;20516;-63
2024/04/04 18:18:11;;;;;;;1.80;0.35;;;;;;;15.84;64.62;99887.06;10311131;28;20416;-66
2024/04/04 18:23:13;;;;;;;1.58;0.20;;;;;;;15.90;64.54;99898.91;10304094;28;20053;-67
2024/04/04 18:28:13;;;;;;;2.97;0.77;;;;;;;15.86;64.73;99898.53;10288651;28;20043;-62
2024/04/04 18:33:14;;;;;;;1.50;0.52;;;;;;;15.83;65.01;99914.38;10291166;28;20298;-57
2024/04/04 18:38:15;;;;;;;1.38;0.73;;;;;;;15.90;64.89;99917.88;10300953;28;20057;-59
2024/04/04 18:43:15;;;;;;;8.10;1.98;;;;;;;15.85;65.28;99931.25;10304034;28;20054;-59
2024/04/04 18:48:16;;;;;;;3.80;0.40;;;;;;;15.81;65.59;99941.72;10291230;28;20109;-56
2024/04/04 18:53:16;;;;;;;3.25;0.30;;;;;;;15.73;66.10;99949.28;10282237;28;20038;-56
2024/04/04 18:58:17;;;;;;;2.78;0.30;;;;;;;15.78;66.12;99954.91;10294495;28;20047;-57
2024/04/04 19:03:17;;;;;;;9.88;0.73;;;;;;;15.71;65.94;99971.16;10297373;28;20057;-56
2024/04/04 19:08:18;;;;;;;2.22;0.38;;;;;;;15.72;66.36;99971.97;10290483;28;20057;-57
2024/04/04 19:13:22;;;;;;;3.33;0.60;;;;;;;15.63;66.59;99972.25;10289654;28;20528;-58
2024/04/04 19:18:26;;;;;;;1.98;0.30;;;;;;;15.52;66.67;99980.22;10297424;28;20121;-59
2024/04/04 19:23:28;;;;;;;3.72;0.40;;;;;;;15.35;66.97;99990.75;10294599;28;20072;-58
2024/04/04 19:28:32;;;;;;;3.45;0.38;;;;;;;15.31;67.45;99994.94;10296945;28;20441;-57
2024/04/04 19:33:34;;;;;;;1.90;0.30;;;;;;;15.29;67.46;100002.47;10295744;28;20057;-56
2024/04/04 19:38:35;;;;;;;4.97;0.90;;;;;;;15.26;67.56;100015.38;10292700;28;20042;-57
2024/04/04 19:43:36;;;;;;;7.50;0.60;;;;;;;15.20;67.71;100016.22;10300800;28;20046;-59
2024/04/04 19:48:37;;;;;;;5.40;0.50;;;;;;;15.12;68.08;100018.34;10300013;28;20050;-59
2024/04/04 19:53:38;;;;;;;3.63;0.63;;;;;;;14.98;68.51;100022.97;10296138;28;20047;-59
2024/04/04 19:58:39;;;;;;;1.90;0.35;;;;;;;14.81;68.96;100022.59;10305631;28;20050;-59
2024/04/04 20:03:40;;;;;;;3.85;0.50;;;;;;;14.68;69.02;100027.00;10306043;28;20081;-59
2024/04/04 20:08:40;;;;;;;2.10;0.73;;;;;;;14.54;69.60;100022.63;10300139;28;20054;-59
2024/04/04 20:13:41;;;;;;;4.38;0.40;;;;;;;14.41;69.69;100020.75;10302457;28;20105;-59
2024/04/04 20:18:42;;;;;;;7.88;0.40;;;;;;;14.31;69.67;100031.16;10299519;28;20370;-59
2024/04/04 20:23:42;;;;;;;3.42;0.50;;;;;;;14.20;70.47;100043.44;10302507;28;20105;-59
2024/04/04 20:28:43;;;;;;;2.50;0.60;;;;;;;14.17;70.62;100045.72;10300852;28;20042;-59
2024/04/04 20:33:43;;;;;;;4.07;0.45;;;;;;;14.23;70.54;100042.19;10295811;28;20054;-59
2024/04/04 20:38:44;;;;;;;1.40;0.40;;;;;;;14.25;70.68;100054.44;10300994;28;20058;-59
2024/04/04 20:43:45;;;;;;;1.35;0.40;;;;;;;14.35;70.59;100048.63;10300583;28;20050;-56
2024/04/04 20:48:46;;;;;;;4.60;0.50;;;;;;;14.35;70.76;100051.34;10298900;28;20050;-57
2024/04/04 20:53:46;;;;;;;10.88;0.70;;;;;;;14.37;70.87;100057.38;10299464;28;20148;-62
2024/04/04 20:58:47;;;;;;;3.55;0.85;;;;;;;14.37;70.90;100054.66;10298403;28;20050;-62
2024/04/04 21:03:50;;;;;;;6.65;0.50;;;;;;;14.36;70.68;100060.31;10302258;28;20047;-61
2024/04/04 21:08:51;;;;;;;7.78;1.45;;;;;;;14.24;71.12;100063.63;10296204;28;20055;-59
2024/04/04 21:13:51;;;;;;;2.65;0.60;;;;;;;14.15;71.51;100056.75;10295023;28;20387;-61
2024/04/04 21:18:52;;;;;;;6.13;0.80;;;;;;;14.08;71.64;100067.56;10279234;28;20052;-60
2024/04/04 21:23:52;;;;;;;4.00;0.60;;;;;;;14.06;71.61;100075.03;10294006;28;20050;-61
2024/04/04 21:28:52;;;;;;;4.85;0.57;;;;;;;14.04;71.69;100065.44;10297897;28;20797;-60
2024/04/04 21:33:53;;;;;;;3.25;0.60;;;;;;;13.97;71.89;100078.13;10298818;28;20406;-61
2024/04/04 21:38:53;;;;;;;3.80;0.40;;;;;;;14.01;71.76;100079.41;10297339;28;20069;-61
2024/04/04 21:43:54;;;;;;;13.02;2.72;;;;;;;14.02;71.89;100087.31;10299223;28;20093;-60
2024/04/04 21:48:55;;;;;;;5.43;1.02;;;;;;;14.00;71.94;100089.38;10293182;28;20046;-61
2024/04/04 21:53:55;;;;;;;2.80;0.70;;;;;;;13.92;72.52;100094.13;10293188;28;20378;-61
2024/04/04 21:58:56;;;;;;;3.40;0.63;;;;;;;13.88;72.57;100102.66;10300821;28;20050;-61
2024/04/04 22:03:56;;;;;;;4.22;0.60;;;;;;;13.87;72.60;100105.56;10278956;28;20486;-57
2024/04/04 22:08:57;;;;;;;9.40;0.65;;;;;;;13.83;72.30;100102.41;10286574;28;20507;-57
2024/04/04 22:13:57;;;;;;;1.75;0.60;;;;;;;13.80;72.31;100107.38;10288826;28;20077;-57
2024/04/04 22:18:58;;;;;;;4.90;1.00;;;;;;;13.68;72.51;100108.00;10292219;28;20046;-57
2024/04/04 22:23:58;;;;;;;8.00;2.63;;;;;;;13.58;72.73;100109.41;10298925;28;20532;-58
2024/04/04 22:28:59;;;;;;;4.20;0.70;;;;;;;13.52;72.64;100118.31;10296333;28;20050;-57
2024/04/04 22:34:00;;;;;;;7.78;0.85;;;;;;;13.42;73.08;100140.28;10294491;28;20089;-57
2024/04/04 22:39:01;;;;;;;3.50;0.60;;;;;;;13.38;73.13;100130.91;10292414;28;20050;-58
2024/04/04 22:44:01;;;;;;;4.00;0.60;;;;;;;13.31;73.59;100138.13;10294908;28;20046;-58
2024/04/04 22:49:01;;;;;;;4.78;0.80;;;;;;;13.26;73.54;100136.84;10296921;28;20654;-58
2024/04/04 22:54:02;;;;;;;6.60;0.70;;;;;;;13.21;73.80;100111.47;10297367;28;20054;-58
2024/04/04 22:59:04;;;;;;;7.20;1.00;;;;;;;13.19;73.47;100103.59;10298349;28;20465;-58
2024/04/04 23:04:05;;;;;;;6.90;1.23;;;;;;;13.16;73.49;100128.25;10293612;28;20504;-58
2024/04/04 23:09:05;;;;;;;7.22;0.90;;;;;;;13.16;73.71;100117.47;10292955;28;20049;-58
2024/04/04 23:14:06;;;;;;;8.02;1.20;;;;;;;13.24;73.24;100109.19;10299117;28;20042;-57
2024/04/04 23:19:06;;;;;;;6.97;1.80;;;;;;;13.31;73.27;100106.59;10295633;28;20053;-57
2024/04/04 23:24:07;;;;;;;8.13;1.05;;;;;;;13.31;73.64;100100.34;10295172;28;20501;-58
2024/04/04 23:29:07;;;;;;;6.18;1.30;;;;;;;13.40;73.51;100099.16;10296056;28;20058;-56
2024/04/04 23:34:08;;;;;;;10.45;2.40;;;;;;;13.51;73.59;100097.72;10310144;28;20051;-58
2024/04/04 23:39:08;;;;;;;3.58;1.38;;;;;;;13.51;73.84;100093.19;10297513;28;20042;-61